• 1385014 10153382300060425 128216538 n
  • 3
  • 6
  • 7
  • 1
  • 10
  • 未命名
  • 121
  • 55
  • 2
  • cargo

Welcome aboard

Current Weather

[source: ADDS]
METAR
RCTP 301643Z 36007KT 9999 SCT009 BKN015 29/26 Q1001 NOSIG RMK A2958 =
TAF
TAF RCTP 301700Z 3018/3124 36015KT 9999 FEW015 BKN032 TEMPO 3018/3101 02010KT FEW010 BKN015 BKN040 TEMPO 3104/3110 33020G30KT 4000 SHRA FEW010 BKN020 BKN040 BECMG 3110/3112 30010KT TEMPO 3118/3124 27008KT 5000 SHRA FEW010 BKN018 BKN050 =